Marco Polo — BR2031 — position and weather

sailwx.info

Track history (hours):
 
Tides and Currents Weather Stations Pressure Air Temp Water Temp Dewpoint Dewpoint Depression Visibility Wind Speed Wind Dir Waves Ship Positions

Marco Polo

Last reported at 2015-Jan-30 07:33 UTC. Time now 2015-Jan-30 12:30 UTC.
Position N 24°26' E 118°17'.

Length 32 m.

MMSI: 416000256.

Date/timePositionNaut miles runAvg speedWind from/ knotsBaromVisibWave heightAir tempDewpointWater temp
2015-Jan-30 07:33N 24°26' E 118°17'8 7.7
2015-Jan-30 06:32N 24°32' E 118°11'9 8.8
2015-Jan-30 05:30N 24°25' E 118°17'0 0.0
2015-Jan-30 04:33N 24°25' E 118°17'0 0.0
2015-Jan-30 01:30N 24°25' E 118°17'9 9.4
2015-Jan-30 00:33N 24°32' E 118°11'9 3.6
2015-Jan-29 22:05N 24°25' E 118°17'8 0.7
2015-Jan-29 09:29N 24°32' E 118°12'8 8.7
2015-Jan-29 08:33N 24°25' E 118°17'3 0.1
2015-Jan-28 08:31N 24°28' E 118°16'6 6.1
2015-Jan-28 07:32N 24°32' E 118°11'9 8.7
2015-Jan-28 06:31N 24°25' E 118°17'0 0.2
2015-Jan-28 05:33N 24°25' E 118°17'0 0.0
2015-Jan-28 04:34N 24°25' E 118°17'9 8.7
2015-Jan-28 03:34N 24°32' E 118°12'4 3.6
2015-Jan-28 02:33N 24°30' E 118°15'5 5.0
2015-Jan-28 01:30N 24°25' E 118°17'0 0.1
2015-Jan-28 00:33N 24°25' E 118°17'0 0.0
2015-Jan-27 23:33N 24°25' E 118°17'0 0.0
2015-Jan-27 22:30N 24°25' E 118°17'0 0.0
2015-Jan-27 21:31N 24°25' E 118°17'0 0.0
2015-Jan-27 20:32N 24°25' E 118°17'0 0.0
2015-Jan-27 19:30N 24°25' E 118°17'0 0.0
2015-Jan-27 18:33N 24°25' E 118°17'0 0.0
2015-Jan-27 17:32N 24°25' E 118°17'0 0.0
2015-Jan-27 16:33N 24°25' E 118°17'0 0.0
2015-Jan-27 15:33N 24°25' E 118°17'0 0.0
2015-Jan-27 14:30N 24°25' E 118°17'0 0.0
2015-Jan-27 09:32N 24°25' E 118°17'0 0.0
2015-Jan-27 08:27N 24°25' E 118°17'0 0.0
2015-Jan-27 07:33N 24°25' E 118°17'9 9.0
2015-Jan-27 06:33N 24°32' E 118°11'9 8.8
2015-Jan-27 05:33N 24°25' E 118°17'0 0.1
2015-Jan-27 04:31N 24°25' E 118°17'0 0.1
2015-Jan-27 03:33N 24°25' E 118°17'1 0.7
2015-Jan-27 02:33N 24°26' E 118°17'6 6.2
2015-Jan-27 01:31N 24°31' E 118°13'7 6.9
2015-Jan-27 00:29N 24°25' E 118°17'0 0.0
2015-Jan-26 23:32N 24°25' E 118°17'0 0.0
2015-Jan-26 22:33N 24°25' E 118°17'0 0.0
2015-Jan-26 21:30N 24°25' E 118°17'0 0.0
2015-Jan-26 20:27N 24°25' E 118°17'0 0.0
2015-Jan-26 19:23N 24°25' E 118°17'0 0.0
2015-Jan-26 18:32N 24°25' E 118°17'0 0.0
2015-Jan-26 17:34N 24°25' E 118°17'0 0.0
2015-Jan-26 16:32N 24°25' E 118°17'0 0.0
2015-Jan-26 15:33N 24°25' E 118°17'0 0.0
2015-Jan-26 14:30N 24°25' E 118°17'0 0.0
2015-Jan-26 09:28N 24°25' E 118°17'9 8.6
2015-Jan-26 08:26N 24°32' E 118°11'910.2
2015-Jan-26 07:33N 24°25' E 118°17'0 0.4
2015-Jan-26 06:32N 24°25' E 118°17'0 0.0
2015-Jan-25 19:04N 24°25' E 118°17'0 0.0
2015-Jan-25 18:26N 24°25' E 118°17'0 0.0
2015-Jan-25 17:27N 24°25' E 118°17'2 0.2
2015-Jan-25 06:32N 24°27' E 118°17'7 7.1
2015-Jan-25 05:33N 24°32' E 118°11'0 0.0
2015-Jan-25 04:33N 24°32' E 118°11'9 8.3
2015-Jan-25 03:28N 24°25' E 118°17'0 0.1
2015-Jan-25 02:29N 24°25' E 118°17'1 1.0
2015-Jan-25 01:33N 24°26' E 118°17'7 6.8
2015-Jan-25 00:33N 24°31' E 118°13'8 7.6
2015-Jan-24 23:33N 24°25' E 118°17'0 0.0
2015-Jan-24 22:33N 24°25' E 118°17'0 0.0
2015-Jan-24 21:33N 24°25' E 118°17'0 0.0
2015-Jan-24 20:30N 24°25' E 118°17'0 0.0
2015-Jan-24 19:32N 24°25' E 118°17'0 0.0
2015-Jan-24 18:33N 24°25' E 118°17'0 0.0
2015-Jan-24 17:30N 24°25' E 118°17'0 0.0
2015-Jan-24 16:33N 24°25' E 118°17'0 0.0
2015-Jan-24 15:32N 24°25' E 118°17'0 0.0
2015-Jan-24 14:32N 24°25' E 118°17'0 0.0
2015-Jan-24 10:29N 24°25' E 118°17'9 9.6
2015-Jan-24 09:33N 24°32' E 118°11'9 7.0
2015-Jan-24 08:15N 24°25' E 118°17'0 0.6
2015-Jan-24 07:31N 24°25' E 118°17'0 0.0
2015-Jan-24 06:33N 24°25' E 118°17'0 0.0
2015-Jan-24 05:33N 24°25' E 118°17'0 0.0
2015-Jan-24 04:33N 24°25' E 118°17'9 8.2
2015-Jan-24 03:29N 24°32' E 118°11'1 1.5
2015-Jan-24 02:33N 24°32' E 118°13'8 7.8
2015-Jan-24 01:33N 24°25' E 118°17'0 0.1
2015-Jan-24 00:33N 24°25' E 118°17'0 0.0
2015-Jan-23 23:32N 24°25' E 118°17'0 0.0
2015-Jan-23 22:33N 24°25' E 118°17'0 0.0
2015-Jan-23 21:33N 24°25' E 118°17'0 0.0
2015-Jan-23 20:29N 24°25' E 118°17'0 0.0
2015-Jan-23 19:33N 24°25' E 118°17'0 0.0
2015-Jan-23 18:33N 24°25' E 118°17'0 0.0
2015-Jan-23 17:32N 24°25' E 118°17'0 0.0
2015-Jan-23 16:33N 24°25' E 118°17'0 0.0
2015-Jan-23 15:30N 24°25' E 118°17'0 0.0
2015-Jan-23 14:31N 24°25' E 118°17'0 0.0
2015-Jan-23 09:33N 24°25' E 118°17'0 0.0
2015-Jan-23 08:33N 24°25' E 118°17'9 8.7
2015-Jan-23 07:32N 24°32' E 118°11'9 9.0
2015-Jan-23 06:32N 24°25' E 118°17'0 0.0
2015-Jan-23 05:31N 24°25' E 118°17'8 8.2
2015-Jan-23 04:32N 24°32' E 118°12'0 0.4
2015-Jan-23 03:32N 24°32' E 118°12'8 1.8
2015-Jan-22 23:06N 24°25' E 118°17'0 0.0
2015-Jan-22 09:29N 24°25' E 118°17'0 0.0
2015-Jan-22 08:16N 24°25' E 118°17'0 0.7
2015-Jan-22 07:33N 24°25' E 118°17'9 8.4
2015-Jan-22 06:29N 24°32' E 118°11'9 9.1
2015-Jan-22 05:30N 24°25' E 118°17'0 0.0
2015-Jan-22 04:32N 24°25' E 118°17'0 0.2
2015-Jan-22 02:33N 24°25' E 118°17'9 8.7
2015-Jan-22 01:33N 24°32' E 118°11'9 8.8
2015-Jan-22 00:32N 24°25' E 118°17'0 0.0
2015-Jan-21 23:32N 24°25' E 118°17'0 0.0
2015-Jan-21 22:50N 24°25' E 118°17'0 0.0
2015-Jan-21 22:45N 24°25' E 118°17'0 0.0
2015-Jan-21 22:33N 24°25' E 118°17'0 0.0
2015-Jan-21 21:33N 24°25' E 118°17'0 0.0
2015-Jan-21 20:33N 24°25' E 118°17'0 0.0
2015-Jan-21 19:32N 24°25' E 118°17'0 0.0
2015-Jan-21 18:32N 24°25' E 118°17'0 0.0
2015-Jan-21 17:33N 24°25' E 118°17'0 0.0
2015-Jan-21 16:32N 24°25' E 118°17'0 0.0
2015-Jan-21 15:32N 24°25' E 118°17'0 0.0
2015-Jan-21 14:33N 24°25' E 118°17'0 0.0
2015-Jan-21 09:30N 24°25' E 118°17'9 9.6
2015-Jan-21 08:33N 24°32' E 118°11'9 8.7
2015-Jan-21 07:31N 24°25' E 118°17'0 0.1
2015-Jan-21 04:15N 24°25' E 118°17'710.0
2015-Jan-21 03:32N 24°31' E 118°13'0 0.2
2015-Jan-21 02:32N 24°32' E 118°13'8 7.8
2015-Jan-21 01:31N 24°25' E 118°17'0 0.1
2015-Jan-21 00:32N 24°25' E 118°17'0 0.0
2015-Jan-20 23:31N 24°25' E 118°17'0 0.0
2015-Jan-20 22:31N 24°25' E 118°17'0 0.0
2015-Jan-20 21:30N 24°25' E 118°17'0 0.0
2015-Jan-20 20:31N 24°25' E 118°17'0 0.0
2015-Jan-20 19:32N 24°25' E 118°17'0 0.0
2015-Jan-20 18:32N 24°25' E 118°17'0 0.0
2015-Jan-20 17:30N 24°25' E 118°17'0 0.0
2015-Jan-20 16:33N 24°25' E 118°17'0 0.0
2015-Jan-20 15:31N 24°25' E 118°17'0 0.0
2015-Jan-20 14:32N 24°25' E 118°17'0 0.0
2015-Jan-20 09:32N 24°25' E 118°17'0 0.0
2015-Jan-20 08:32N 24°25' E 118°17'  
Track history (hours):
 
Tides and Currents Weather Stations Pressure Air Temp Water Temp Dewpoint Dewpoint Depression Visibility Wind Speed Wind Dir Waves Ship Positions

Marco Polo

Last reported at 2015-Jan-30 07:33 UTC. Time now 2015-Jan-30 12:30 UTC.
Position N 24°26' E 118°17'.

Length 32 m.

MMSI: 416000256.

Date/timePositionNaut miles runAvg speedWind from/ knotsBaromVisibWave heightAir tempDewpointWater temp
2015-Jan-30 07:33N 24°26' E 118°17'8 7.7
2015-Jan-30 06:32N 24°32' E 118°11'9 8.8
2015-Jan-30 05:30N 24°25' E 118°17'0 0.0
2015-Jan-30 04:33N 24°25' E 118°17'0 0.0
2015-Jan-30 01:30N 24°25' E 118°17'9 9.4
2015-Jan-30 00:33N 24°32' E 118°11'9 3.6
2015-Jan-29 22:05N 24°25' E 118°17'8 0.7
2015-Jan-29 09:29N 24°32' E 118°12'8 8.7
2015-Jan-29 08:33N 24°25' E 118°17'3 0.1
2015-Jan-28 08:31N 24°28' E 118°16'6 6.1
2015-Jan-28 07:32N 24°32' E 118°11'9 8.7
2015-Jan-28 06:31N 24°25' E 118°17'0 0.2
2015-Jan-28 05:33N 24°25' E 118°17'0 0.0
2015-Jan-28 04:34N 24°25' E 118°17'9 8.7
2015-Jan-28 03:34N 24°32' E 118°12'4 3.6
2015-Jan-28 02:33N 24°30' E 118°15'5 5.0
2015-Jan-28 01:30N 24°25' E 118°17'0 0.1
2015-Jan-28 00:33N 24°25' E 118°17'0 0.0
2015-Jan-27 23:33N 24°25' E 118°17'0 0.0
2015-Jan-27 22:30N 24°25' E 118°17'0 0.0
2015-Jan-27 21:31N 24°25' E 118°17'0 0.0
2015-Jan-27 20:32N 24°25' E 118°17'0 0.0
2015-Jan-27 19:30N 24°25' E 118°17'0 0.0
2015-Jan-27 18:33N 24°25' E 118°17'0 0.0
2015-Jan-27 17:32N 24°25' E 118°17'0 0.0
2015-Jan-27 16:33N 24°25' E 118°17'0 0.0
2015-Jan-27 15:33N 24°25' E 118°17'0 0.0
2015-Jan-27 14:30N 24°25' E 118°17'0 0.0
2015-Jan-27 09:32N 24°25' E 118°17'0 0.0
2015-Jan-27 08:27N 24°25' E 118°17'0 0.0
2015-Jan-27 07:33N 24°25' E 118°17'9 9.0
2015-Jan-27 06:33N 24°32' E 118°11'9 8.8
2015-Jan-27 05:33N 24°25' E 118°17'0 0.1
2015-Jan-27 04:31N 24°25' E 118°17'0 0.1
2015-Jan-27 03:33N 24°25' E 118°17'1 0.7
2015-Jan-27 02:33N 24°26' E 118°17'6 6.2
2015-Jan-27 01:31N 24°31' E 118°13'7 6.9
2015-Jan-27 00:29N 24°25' E 118°17'0 0.0
2015-Jan-26 23:32N 24°25' E 118°17'0 0.0
2015-Jan-26 22:33N 24°25' E 118°17'0 0.0
2015-Jan-26 21:30N 24°25' E 118°17'0 0.0
2015-Jan-26 20:27N 24°25' E 118°17'0 0.0
2015-Jan-26 19:23N 24°25' E 118°17'0 0.0
2015-Jan-26 18:32N 24°25' E 118°17'0 0.0
2015-Jan-26 17:34N 24°25' E 118°17'0 0.0
2015-Jan-26 16:32N 24°25' E 118°17'0 0.0
2015-Jan-26 15:33N 24°25' E 118°17'0 0.0
2015-Jan-26 14:30N 24°25' E 118°17'0 0.0
2015-Jan-26 09:28N 24°25' E 118°17'9 8.6
2015-Jan-26 08:26N 24°32' E 118°11'910.2
2015-Jan-26 07:33N 24°25' E 118°17'0 0.4
2015-Jan-26 06:32N 24°25' E 118°17'0 0.0
2015-Jan-25 19:04N 24°25' E 118°17'0 0.0
2015-Jan-25 18:26N 24°25' E 118°17'0 0.0
2015-Jan-25 17:27N 24°25' E 118°17'2 0.2
2015-Jan-25 06:32N 24°27' E 118°17'7 7.1
2015-Jan-25 05:33N 24°32' E 118°11'0 0.0
2015-Jan-25 04:33N 24°32' E 118°11'9 8.3
2015-Jan-25 03:28N 24°25' E 118°17'0 0.1
2015-Jan-25 02:29N 24°25' E 118°17'1 1.0
2015-Jan-25 01:33N 24°26' E 118°17'7 6.8
2015-Jan-25 00:33N 24°31' E 118°13'8 7.6
2015-Jan-24 23:33N 24°25' E 118°17'0 0.0
2015-Jan-24 22:33N 24°25' E 118°17'0 0.0
2015-Jan-24 21:33N 24°25' E 118°17'0 0.0
2015-Jan-24 20:30N 24°25' E 118°17'0 0.0
2015-Jan-24 19:32N 24°25' E 118°17'0 0.0
2015-Jan-24 18:33N 24°25' E 118°17'0 0.0
2015-Jan-24 17:30N 24°25' E 118°17'0 0.0
2015-Jan-24 16:33N 24°25' E 118°17'0 0.0
2015-Jan-24 15:32N 24°25' E 118°17'0 0.0
2015-Jan-24 14:32N 24°25' E 118°17'0 0.0
2015-Jan-24 10:29N 24°25' E 118°17'9 9.6
2015-Jan-24 09:33N 24°32' E 118°11'9 7.0
2015-Jan-24 08:15N 24°25' E 118°17'0 0.6
2015-Jan-24 07:31N 24°25' E 118°17'0 0.0
2015-Jan-24 06:33N 24°25' E 118°17'0 0.0
2015-Jan-24 05:33N 24°25' E 118°17'0 0.0
2015-Jan-24 04:33N 24°25' E 118°17'9 8.2
2015-Jan-24 03:29N 24°32' E 118°11'1 1.5
2015-Jan-24 02:33N 24°32' E 118°13'8 7.8
2015-Jan-24 01:33N 24°25' E 118°17'0 0.1
2015-Jan-24 00:33N 24°25' E 118°17'0 0.0
2015-Jan-23 23:32N 24°25' E 118°17'0 0.0
2015-Jan-23 22:33N 24°25' E 118°17'0 0.0
2015-Jan-23 21:33N 24°25' E 118°17'0 0.0
2015-Jan-23 20:29N 24°25' E 118°17'0 0.0
2015-Jan-23 19:33N 24°25' E 118°17'0 0.0
2015-Jan-23 18:33N 24°25' E 118°17'0 0.0
2015-Jan-23 17:32N 24°25' E 118°17'0 0.0
2015-Jan-23 16:33N 24°25' E 118°17'0 0.0
2015-Jan-23 15:30N 24°25' E 118°17'0 0.0
2015-Jan-23 14:31N 24°25' E 118°17'0 0.0
2015-Jan-23 09:33N 24°25' E 118°17'0 0.0
2015-Jan-23 08:33N 24°25' E 118°17'9 8.7
2015-Jan-23 07:32N 24°32' E 118°11'9 9.0
2015-Jan-23 06:32N 24°25' E 118°17'0 0.0
2015-Jan-23 05:31N 24°25' E 118°17'8 8.2
2015-Jan-23 04:32N 24°32' E 118°12'0 0.4
2015-Jan-23 03:32N 24°32' E 118°12'8 1.8
2015-Jan-22 23:06N 24°25' E 118°17'0 0.0
2015-Jan-22 09:29N 24°25' E 118°17'0 0.0
2015-Jan-22 08:16N 24°25' E 118°17'0 0.7
2015-Jan-22 07:33N 24°25' E 118°17'9 8.4
2015-Jan-22 06:29N 24°32' E 118°11'9 9.1
2015-Jan-22 05:30N 24°25' E 118°17'0 0.0
2015-Jan-22 04:32N 24°25' E 118°17'0 0.2
2015-Jan-22 02:33N 24°25' E 118°17'9 8.7
2015-Jan-22 01:33N 24°32' E 118°11'9 8.8
2015-Jan-22 00:32N 24°25' E 118°17'0 0.0
2015-Jan-21 23:32N 24°25' E 118°17'0 0.0
2015-Jan-21 22:50N 24°25' E 118°17'0 0.0
2015-Jan-21 22:45N 24°25' E 118°17'0 0.0
2015-Jan-21 22:33N 24°25' E 118°17'0 0.0
2015-Jan-21 21:33N 24°25' E 118°17'0 0.0
2015-Jan-21 20:33N 24°25' E 118°17'0 0.0
2015-Jan-21 19:32N 24°25' E 118°17'0 0.0
2015-Jan-21 18:32N 24°25' E 118°17'0 0.0
2015-Jan-21 17:33N 24°25' E 118°17'0 0.0
2015-Jan-21 16:32N 24°25' E 118°17'0 0.0
2015-Jan-21 15:32N 24°25' E 118°17'0 0.0
2015-Jan-21 14:33N 24°25' E 118°17'0 0.0
2015-Jan-21 09:30N 24°25' E 118°17'9 9.6
2015-Jan-21 08:33N 24°32' E 118°11'9 8.7
2015-Jan-21 07:31N 24°25' E 118°17'0 0.1
2015-Jan-21 04:15N 24°25' E 118°17'710.0
2015-Jan-21 03:32N 24°31' E 118°13'0 0.2
2015-Jan-21 02:32N 24°32' E 118°13'8 7.8
2015-Jan-21 01:31N 24°25' E 118°17'0 0.1
2015-Jan-21 00:32N 24°25' E 118°17'0 0.0
2015-Jan-20 23:31N 24°25' E 118°17'0 0.0
2015-Jan-20 22:31N 24°25' E 118°17'0 0.0
2015-Jan-20 21:30N 24°25' E 118°17'0 0.0
2015-Jan-20 20:31N 24°25' E 118°17'0 0.0
2015-Jan-20 19:32N 24°25' E 118°17'0 0.0
2015-Jan-20 18:32N 24°25' E 118°17'0 0.0
2015-Jan-20 17:30N 24°25' E 118°17'0 0.0
2015-Jan-20 16:33N 24°25' E 118°17'0 0.0
2015-Jan-20 15:31N 24°25' E 118°17'0 0.0
2015-Jan-20 14:32N 24°25' E 118°17'0 0.0
2015-Jan-20 09:32N 24°25' E 118°17'0 0.0
2015-Jan-20 08:32N 24°25' E 118°17'  

Dump ship's entire track history